createdAt,value
2023-09-09T00:06:31.523Z,12.05
2023-09-09T00:16:36.419Z,10.80
2023-09-09T00:26:39.668Z,9.63
2023-09-09T00:36:44.202Z,9.35
2023-09-09T00:46:47.850Z,9.07
2023-09-09T00:56:52.562Z,8.73
2023-09-09T01:06:55.796Z,8.60
2023-09-09T01:17:01.117Z,11.23
2023-09-09T01:27:06.804Z,11.80
2023-09-09T01:37:10.857Z,9.48
2023-09-09T01:47:15.991Z,9.00
2023-09-09T01:57:23.082Z,9.45
2023-09-09T02:07:28.158Z,9.05
2023-09-09T02:17:31.407Z,11.07
2023-09-09T02:27:36.115Z,11.32
2023-09-09T02:37:39.283Z,11.93
2023-09-09T02:47:44.414Z,12.00
2023-09-09T02:57:49.907Z,11.70
2023-09-09T03:07:54.830Z,10.77
2023-09-09T03:17:59.002Z,12.25
2023-09-09T03:28:05.158Z,12.40
2023-09-09T03:38:08.436Z,13.93
2023-09-09T03:48:14.255Z,13.23
2023-09-09T03:58:17.811Z,13.18
2023-09-09T04:08:22.415Z,13.45
2023-09-09T04:18:42.408Z,13.18
2023-09-09T04:28:49.662Z,13.18
2023-09-09T04:38:53.353Z,12.60
2023-09-09T04:48:58.272Z,12.63
2023-09-09T04:59:01.663Z,13.02
2023-09-09T05:09:06.603Z,13.43
2023-09-09T05:19:09.920Z,13.07
2023-09-09T05:29:14.467Z,13.07
2023-09-09T05:39:18.479Z,12.88
2023-09-09T05:49:36.050Z,12.82
2023-09-09T05:59:42.019Z,12.95
2023-09-09T06:09:49.019Z,12.68
2023-09-09T06:19:52.344Z,13.30
2023-09-09T06:29:57.014Z,12.43
2023-09-09T06:40:00.348Z,13.05
2023-09-09T06:50:05.327Z,12.95
2023-09-09T07:00:09.744Z,12.45
2023-09-09T07:10:14.546Z,11.35
2023-09-09T07:20:18.135Z,12.15
2023-09-09T07:30:22.741Z,10.90
2023-09-09T07:40:25.992Z,11.40
2023-09-09T07:50:30.520Z,10.23
2023-09-09T08:00:34.674Z,10.43
2023-09-09T08:10:39.408Z,10.80
2023-09-09T08:20:42.804Z,10.38
2023-09-09T08:30:47.375Z,9.73
2023-09-09T08:40:57.188Z,10.20
2023-09-09T08:51:05.509Z,10.10
2023-09-09T09:01:09.453Z,10.20
2023-09-09T09:11:15.299Z,9.68
2023-09-09T09:21:18.539Z,9.25
2023-09-09T09:31:23.442Z,9.18
2023-09-09T09:41:26.617Z,9.05
2023-09-09T09:51:44.487Z,8.38
2023-09-09T10:01:48.070Z,8.80
2023-09-09T10:11:59.620Z,8.32
2023-09-09T10:22:03.286Z,8.38
2023-09-09T10:32:12.404Z,8.38
2023-09-09T10:42:16.776Z,7.35
2023-09-09T10:52:39.007Z,7.38
2023-09-09T11:02:49.050Z,8.05
2023-09-09T11:13:00.401Z,7.57
2023-09-09T11:23:03.978Z,7.38
2023-09-09T11:33:08.490Z,5.88
2023-09-09T11:43:11.708Z,6.00
2023-09-09T11:53:16.515Z,5.85
2023-09-09T12:03:23.018Z,6.85
2023-09-09T12:13:28.288Z,5.93
2023-09-09T12:23:32.194Z,6.57
2023-09-09T12:33:45.064Z,6.22
2023-09-09T12:43:48.961Z,5.07
2023-09-09T12:53:53.770Z,5.80
2023-09-09T13:03:56.983Z,5.50
2023-09-09T13:14:13.280Z,5.00
2023-09-09T13:24:25.502Z,4.70
2023-09-09T13:34:30.691Z,4.22
2023-09-09T13:44:34.334Z,4.60
2023-09-09T13:54:39.571Z,4.53
2023-09-09T14:04:42.801Z,4.85
2023-09-09T14:14:47.286Z,5.00
2023-09-09T14:24:50.427Z,4.38
2023-09-09T14:34:54.958Z,4.70
2023-09-09T14:44:58.152Z,4.25
2023-09-09T14:55:02.806Z,4.57
2023-09-09T15:05:08.324Z,4.70
2023-09-09T15:15:13.860Z,4.78
2023-09-09T15:25:17.145Z,5.00
2023-09-09T15:35:21.900Z,5.13
2023-09-09T15:45:25.088Z,5.25
2023-09-09T15:55:31.144Z,5.55
2023-09-09T16:05:35.349Z,5.45
2023-09-09T16:15:40.057Z,5.85
2023-09-09T16:25:45.855Z,5.18
2023-09-09T16:35:50.544Z,5.57
2023-09-09T16:45:53.835Z,5.03
2023-09-09T16:56:02.056Z,5.85
2023-09-09T17:06:05.390Z,5.88
2023-09-09T17:16:10.076Z,5.25
2023-09-09T17:26:13.237Z,5.95
2023-09-09T17:36:17.765Z,5.22
2023-09-09T17:46:20.998Z,6.70
2023-09-09T17:56:26.220Z,6.30
2023-09-09T18:06:29.714Z,11.30
2023-09-09T18:16:34.533Z,7.63
2023-09-09T18:26:37.790Z,6.82
2023-09-09T18:36:42.352Z,8.02
2023-09-09T18:46:45.657Z,8.68
2023-09-09T18:56:52.323Z,8.40
2023-09-09T19:06:57.868Z,8.07
2023-09-09T19:17:02.443Z,8.07
2023-09-09T19:27:06.022Z,10.45
2023-09-09T19:37:10.514Z,10.05
2023-09-09T19:47:13.706Z,10.15
2023-09-09T19:57:18.575Z,10.93
2023-09-09T20:07:22.066Z,9.63
2023-09-09T20:17:26.611Z,8.55
2023-09-09T20:27:29.811Z,9.02
2023-09-09T20:37:34.430Z,8.45
2023-09-09T20:47:37.725Z,8.77
2023-09-09T20:57:43.478Z,8.57
2023-09-09T21:07:48.160Z,8.25
2023-09-09T21:17:52.770Z,8.82
2023-09-09T21:27:56.129Z,8.20
2023-09-09T21:38:00.739Z,8.25
2023-09-09T21:48:04.133Z,9.18
2023-09-09T21:58:08.655Z,9.45
2023-09-09T22:08:11.820Z,9.02
2023-09-09T22:18:16.599Z,8.43
2023-09-09T22:28:19.825Z,8.70
2023-09-09T22:38:24.434Z,9.25
2023-09-09T22:48:28.343Z,9.43
2023-09-09T22:58:34.793Z,9.48
2023-09-09T23:08:38.666Z,9.10
2023-09-09T23:18:45.054Z,9.27
2023-09-09T23:28:48.258Z,8.98
2023-09-09T23:38:52.825Z,9.30
2023-09-09T23:48:55.990Z,8.73
2023-09-09T23:59:00.587Z,8.77
